sensor_id;sensor_type;location;lat;lon;timestamp;pressure;altitude;pressure_sealevel;temperature;humidity
24858;BME280;12935;50.782;6.074;2023-01-27T00:00:08;100093.47;;;3.02;100.00
24858;BME280;12935;50.782;6.074;2023-01-27T00:02:36;100099.78;;;3.06;100.00
24858;BME280;12935;50.782;6.074;2023-01-27T00:05:02;100096.44;;;3.09;100.00
24858;BME280;12935;50.782;6.074;2023-01-27T00:07:27;100091.84;;;3.09;100.00
24858;BME280;12935;50.782;6.074;2023-01-27T00:09:53;100090.25;;;3.08;100.00
24858;BME280;12935;50.782;6.074;2023-01-27T00:12:21;100094.53;;;3.09;100.00
24858;BME280;12935;50.782;6.074;2023-01-27T00:15:07;100089.31;;;3.04;100.00
24858;BME280;12935;50.782;6.074;2023-01-27T00:17:33;100093.13;;;3.03;100.00
24858;BME280;12935;50.782;6.074;2023-01-27T00:20:02;100085.19;;;3.07;100.00
24858;BME280;12935;50.782;6.074;2023-01-27T00:22:28;100090.09;;;3.05;100.00
24858;BME280;12935;50.782;6.074;2023-01-27T00:25:13;100093.00;;;3.00;100.00
24858;BME280;12935;50.782;6.074;2023-01-27T00:27:39;100089.38;;;2.96;100.00
24858;BME280;12935;50.782;6.074;2023-01-27T00:30:05;100097.59;;;2.99;100.00
24858;BME280;12935;50.782;6.074;2023-01-27T00:32:31;100101.03;;;3.08;100.00
24858;BME280;12935;50.782;6.074;2023-01-27T00:35:16;100098.22;;;3.05;100.00
24858;BME280;12935;50.782;6.074;2023-01-27T00:37:43;100096.94;;;3.02;100.00
24858;BME280;12935;50.782;6.074;2023-01-27T00:40:10;100092.56;;;2.98;100.00
24858;BME280;12935;50.782;6.074;2023-01-27T00:42:36;100095.91;;;2.95;100.00
24858;BME280;12935;50.782;6.074;2023-01-27T00:45:02;100102.44;;;3.14;100.00
24858;BME280;12935;50.782;6.074;2023-01-27T00:47:47;100096.75;;;3.07;100.00
24858;BME280;12935;50.782;6.074;2023-01-27T00:50:18;100096.84;;;2.99;100.00
24858;BME280;12935;50.782;6.074;2023-01-27T00:52:44;100101.78;;;2.97;100.00
24858;BME280;12935;50.782;6.074;2023-01-27T00:55:10;100101.88;;;3.00;100.00
24858;BME280;12935;50.782;6.074;2023-01-27T00:57:44;100099.53;;;2.99;100.00
24858;BME280;12935;50.782;6.074;2023-01-27T01:00:10;100093.06;;;2.91;100.00
24858;BME280;12935;50.782;6.074;2023-01-27T01:02:45;100104.66;;;2.92;100.00
24858;BME280;12935;50.782;6.074;2023-01-27T01:05:11;100104.78;;;2.95;100.00
24858;BME280;12935;50.782;6.074;2023-01-27T01:07:36;100103.25;;;2.86;100.00
24858;BME280;12935;50.782;6.074;2023-01-27T01:10:02;100103.72;;;2.88;100.00
24858;BME280;12935;50.782;6.074;2023-01-27T01:12:30;100112.59;;;2.88;100.00
24858;BME280;12935;50.782;6.074;2023-01-27T01:14:58;100121.25;;;3.02;100.00
24858;BME280;12935;50.782;6.074;2023-01-27T01:17:24;100117.44;;;3.03;100.00
24858;BME280;12935;50.782;6.074;2023-01-27T01:19:50;100115.91;;;2.94;100.00
24858;BME280;12935;50.782;6.074;2023-01-27T01:22:16;100111.88;;;3.00;100.00
24858;BME280;12935;50.782;6.074;2023-01-27T01:24:45;100115.06;;;3.02;100.00
24858;BME280;12935;50.782;6.074;2023-01-27T01:27:10;100118.63;;;2.94;100.00
24858;BME280;12935;50.782;6.074;2023-01-27T01:29:37;100121.81;;;2.87;100.00
24858;BME280;12935;50.782;6.074;2023-01-27T01:32:03;100115.38;;;2.79;100.00
24858;BME280;12935;50.782;6.074;2023-01-27T01:34:29;100122.81;;;2.83;100.00
24858;BME280;12935;50.782;6.074;2023-01-27T01:36:54;100125.06;;;2.80;100.00
24858;BME280;12935;50.782;6.074;2023-01-27T01:39:20;100121.50;;;2.89;100.00
24858;BME280;12935;50.782;6.074;2023-01-27T01:41:46;100129.16;;;3.07;100.00
24858;BME280;12935;50.782;6.074;2023-01-27T01:44:25;100134.97;;;3.18;100.00
24858;BME280;12935;50.782;6.074;2023-01-27T01:46:51;100131.16;;;2.90;100.00
24858;BME280;12935;50.782;6.074;2023-01-27T01:49:21;100131.34;;;2.85;100.00
24858;BME280;12935;50.782;6.074;2023-01-27T01:51:52;100133.88;;;2.90;100.00
24858;BME280;12935;50.782;6.074;2023-01-27T01:54:44;100126.38;;;2.95;100.00
24858;BME280;12935;50.782;6.074;2023-01-27T01:59:54;100134.53;;;2.87;100.00
24858;BME280;12935;50.782;6.074;2023-01-27T02:02:22;100134.94;;;2.97;100.00
24858;BME280;12935;50.782;6.074;2023-01-27T02:04:58;100132.59;;;3.16;100.00
24858;BME280;12935;50.782;6.074;2023-01-27T02:07:52;100126.22;;;3.21;100.00
24858;BME280;12935;50.782;6.074;2023-01-27T02:10:19;100133.91;;;3.10;100.00
24858;BME280;12935;50.782;6.074;2023-01-27T02:12:45;100135.81;;;3.31;100.00
24858;BME280;12935;50.782;6.074;2023-01-27T02:15:11;100129.50;;;3.47;100.00
24858;BME280;12935;50.782;6.074;2023-01-27T02:17:37;100134.47;;;3.45;100.00
24858;BME280;12935;50.782;6.074;2023-01-27T02:23:04;100131.22;;;3.10;100.00
24858;BME280;12935;50.782;6.074;2023-01-27T02:25:54;100130.88;;;3.12;100.00
24858;BME280;12935;50.782;6.074;2023-01-27T02:28:21;100124.38;;;3.13;100.00
24858;BME280;12935;50.782;6.074;2023-01-27T02:30:46;100136.88;;;3.38;100.00
24858;BME280;12935;50.782;6.074;2023-01-27T02:33:13;100126.03;;;3.26;100.00
24858;BME280;12935;50.782;6.074;2023-01-27T02:38:12;100130.94;;;3.03;100.00
24858;BME280;12935;50.782;6.074;2023-01-27T02:40:40;100137.91;;;3.04;100.00
24858;BME280;12935;50.782;6.074;2023-01-27T02:43:06;100132.66;;;3.08;100.00
24858;BME280;12935;50.782;6.074;2023-01-27T02:45:31;100131.72;;;3.04;100.00
24858;BME280;12935;50.782;6.074;2023-01-27T02:47:57;100137.22;;;2.87;100.00
24858;BME280;12935;50.782;6.074;2023-01-27T02:50:23;100130.94;;;2.74;100.00
24858;BME280;12935;50.782;6.074;2023-01-27T02:52:48;100130.16;;;2.73;100.00
24858;BME280;12935;50.782;6.074;2023-01-27T02:55:14;100130.16;;;2.73;100.00
24858;BME280;12935;50.782;6.074;2023-01-27T02:57:43;100120.78;;;2.71;100.00
24858;BME280;12935;50.782;6.074;2023-01-27T03:00:12;100127.50;;;2.65;100.00
24858;BME280;12935;50.782;6.074;2023-01-27T03:02:46;100118.97;;;2.54;100.00
24858;BME280;12935;50.782;6.074;2023-01-27T03:05:11;100114.38;;;2.55;100.00
24858;BME280;12935;50.782;6.074;2023-01-27T03:07:39;100125.84;;;2.52;100.00
24858;BME280;12935;50.782;6.074;2023-01-27T03:10:05;100122.94;;;2.57;100.00
24858;BME280;12935;50.782;6.074;2023-01-27T03:12:31;100128.31;;;2.57;100.00
24858;BME280;12935;50.782;6.074;2023-01-27T03:15:02;100125.16;;;2.55;100.00
24858;BME280;12935;50.782;6.074;2023-01-27T03:17:46;100122.00;;;2.53;100.00
24858;BME280;12935;50.782;6.074;2023-01-27T03:20:33;100128.66;;;2.55;100.00
24858;BME280;12935;50.782;6.074;2023-01-27T03:22:59;100133.00;;;2.77;100.00
24858;BME280;12935;50.782;6.074;2023-01-27T03:25:25;100133.00;;;2.77;100.00
24858;BME280;12935;50.782;6.074;2023-01-27T03:27:57;100127.66;;;2.98;100.00
24858;BME280;12935;50.782;6.074;2023-01-27T03:30:26;100128.19;;;3.12;100.00
24858;BME280;12935;50.782;6.074;2023-01-27T03:32:52;100126.03;;;3.26;100.00
24858;BME280;12935;50.782;6.074;2023-01-27T03:35:21;100142.59;;;3.16;100.00
24858;BME280;12935;50.782;6.074;2023-01-27T03:37:48;100135.38;;;3.29;100.00
24858;BME280;12935;50.782;6.074;2023-01-27T03:40:32;100133.84;;;3.19;100.00
24858;BME280;12935;50.782;6.074;2023-01-27T03:43:17;100138.31;;;3.15;100.00
24858;BME280;12935;50.782;6.074;2023-01-27T03:46:01;100144.84;;;3.35;100.00
24858;BME280;12935;50.782;6.074;2023-01-27T03:48:43;100142.69;;;3.28;100.00
24858;BME280;12935;50.782;6.074;2023-01-27T03:51:10;100158.69;;;3.12;100.00
24858;BME280;12935;50.782;6.074;2023-01-27T03:53:36;100152.38;;;3.29;100.00
24858;BME280;12935;50.782;6.074;2023-01-27T03:56:03;100154.03;;;3.42;100.00
24858;BME280;12935;50.782;6.074;2023-01-27T03:58:32;100150.44;;;3.50;100.00
24858;BME280;12935;50.782;6.074;2023-01-27T04:01:00;100140.66;;;3.46;100.00
24858;BME280;12935;50.782;6.074;2023-01-27T04:03:29;100156.63;;;3.51;100.00
24858;BME280;12935;50.782;6.074;2023-01-27T04:06:23;100158.22;;;3.52;100.00
24858;BME280;12935;50.782;6.074;2023-01-27T04:09:08;100159.88;;;3.44;100.00
24858;BME280;12935;50.782;6.074;2023-01-27T04:11:33;100170.88;;;3.39;100.00
24858;BME280;12935;50.782;6.074;2023-01-27T04:14:17;100168.19;;;3.39;100.00
24858;BME280;12935;50.782;6.074;2023-01-27T04:16:43;100166.78;;;3.33;100.00
24858;BME280;12935;50.782;6.074;2023-01-27T04:19:10;100180.38;;;3.45;100.00
24858;BME280;12935;50.782;6.074;2023-01-27T04:21:36;100172.00;;;3.38;100.00
24858;BME280;12935;50.782;6.074;2023-01-27T04:24:02;100181.34;;;3.41;100.00
24858;BME280;12935;50.782;6.074;2023-01-27T04:26:28;100176.47;;;3.34;100.00
24858;BME280;12935;50.782;6.074;2023-01-27T04:29:03;100185.81;;;3.37;100.00
24858;BME280;12935;50.782;6.074;2023-01-27T04:31:29;100190.63;;;3.31;100.00
24858;BME280;12935;50.782;6.074;2023-01-27T04:33:55;100183.78;;;3.34;100.00
24858;BME280;12935;50.782;6.074;2023-01-27T04:36:21;100184.84;;;3.41;100.00
24858;BME280;12935;50.782;6.074;2023-01-27T04:38:47;100194.72;;;3.37;100.00
24858;BME280;12935;50.782;6.074;2023-01-27T04:41:12;100199.94;;;3.42;100.00
24858;BME280;12935;50.782;6.074;2023-01-27T04:43:39;100206.47;;;3.41;100.00
24858;BME280;12935;50.782;6.074;2023-01-27T04:46:05;100207.25;;;3.42;100.00
24858;BME280;12935;50.782;6.074;2023-01-27T04:48:30;100209.34;;;3.36;100.00
24858;BME280;12935;50.782;6.074;2023-01-27T04:50:55;100199.97;;;3.34;100.00
24858;BME280;12935;50.782;6.074;2023-01-27T04:53:21;100203.63;;;3.38;100.00
24858;BME280;12935;50.782;6.074;2023-01-27T04:55:48;100206.56;;;3.24;100.00
24858;BME280;12935;50.782;6.074;2023-01-27T04:58:14;100216.41;;;3.29;100.00
24858;BME280;12935;50.782;6.074;2023-01-27T05:00:42;100207.88;;;3.18;100.00
24858;BME280;12935;50.782;6.074;2023-01-27T05:03:11;100217.47;;;2.69;100.00
24858;BME280;12935;50.782;6.074;2023-01-27T05:05:37;100212.25;;;2.64;100.00
24858;BME280;12935;50.782;6.074;2023-01-27T05:08:04;100215.56;;;2.69;100.00
24858;BME280;12935;50.782;6.074;2023-01-27T05:10:30;100215.81;;;2.38;100.00
24858;BME280;12935;50.782;6.074;2023-01-27T05:12:56;100218.13;;;2.57;100.00
24858;BME280;12935;50.782;6.074;2023-01-27T05:15:22;100223.38;;;2.62;100.00
24858;BME280;12935;50.782;6.074;2023-01-27T05:17:47;100214.81;;;2.60;100.00
24858;BME280;12935;50.782;6.074;2023-01-27T05:20:13;100222.66;;;2.36;100.00
24858;BME280;12935;50.782;6.074;2023-01-27T05:22:38;100221.34;;;2.42;100.00
24858;BME280;12935;50.782;6.074;2023-01-27T05:25:04;100213.94;;;2.22;100.00
24858;BME280;12935;50.782;6.074;2023-01-27T05:27:30;100221.72;;;2.15;100.00
24858;BME280;12935;50.782;6.074;2023-01-27T05:29:55;100229.63;;;2.28;100.00
24858;BME280;12935;50.782;6.074;2023-01-27T05:32:21;100219.81;;;2.32;100.00
24858;BME280;12935;50.782;6.074;2023-01-27T05:34:46;100220.72;;;2.36;100.00
24858;BME280;12935;50.782;6.074;2023-01-27T05:37:12;100222.47;;;2.41;100.00
24858;BME280;12935;50.782;6.074;2023-01-27T05:39:37;100212.16;;;2.52;100.00
24858;BME280;12935;50.782;6.074;2023-01-27T05:42:03;100226.22;;;2.66;100.00
24858;BME280;12935;50.782;6.074;2023-01-27T05:44:29;100229.28;;;2.47;100.00
24858;BME280;12935;50.782;6.074;2023-01-27T05:46:54;100232.78;;;2.47;100.00
24858;BME280;12935;50.782;6.074;2023-01-27T05:49:20;100225.69;;;2.26;100.00
24858;BME280;12935;50.782;6.074;2023-01-27T05:51:45;100227.72;;;2.29;100.00
24858;BME280;12935;50.782;6.074;2023-01-27T05:54:14;100229.97;;;2.27;100.00
24858;BME280;12935;50.782;6.074;2023-01-27T05:56:39;100231.69;;;2.23;100.00
24858;BME280;12935;50.782;6.074;2023-01-27T05:59:06;100224.56;;;2.27;100.00
24858;BME280;12935;50.782;6.074;2023-01-27T06:01:32;100225.69;;;2.17;100.00
24858;BME280;12935;50.782;6.074;2023-01-27T06:03:59;100229.38;;;2.04;100.00
24858;BME280;12935;50.782;6.074;2023-01-27T06:06:27;100233.00;;;2.17;100.00
24858;BME280;12935;50.782;6.074;2023-01-27T06:08:53;100220.75;;;2.28;100.00
24858;BME280;12935;50.782;6.074;2023-01-27T06:11:20;100227.41;;;2.22;100.00
24858;BME280;12935;50.782;6.074;2023-01-27T06:13:46;100229.31;;;2.21;100.00
24858;BME280;12935;50.782;6.074;2023-01-27T06:16:15;100229.31;;;2.21;100.00
24858;BME280;12935;50.782;6.074;2023-01-27T06:18:45;100227.59;;;2.17;100.00
24858;BME280;12935;50.782;6.074;2023-01-27T06:21:12;100229.78;;;2.23;100.00
24858;BME280;12935;50.782;6.074;2023-01-27T06:23:39;100226.28;;;2.49;100.00
24858;BME280;12935;50.782;6.074;2023-01-27T06:26:13;100224.75;;;2.68;100.00
24858;BME280;12935;50.782;6.074;2023-01-27T06:28:39;100227.53;;;2.42;100.00
24858;BME280;12935;50.782;6.074;2023-01-27T06:31:17;100235.00;;;2.37;100.00
24858;BME280;12935;50.782;6.074;2023-01-27T06:33:43;100239.47;;;2.24;100.00
24858;BME280;12935;50.782;6.074;2023-01-27T06:36:11;100240.25;;;2.25;100.00
24858;BME280;12935;50.782;6.074;2023-01-27T06:38:37;100251.69;;;2.22;100.00
24858;BME280;12935;50.782;6.074;2023-01-27T06:41:05;100244.88;;;2.16;100.00
24858;BME280;12935;50.782;6.074;2023-01-27T06:43:34;100243.47;;;2.09;100.00
24858;BME280;12935;50.782;6.074;2023-01-27T06:45:59;100251.84;;;2.08;100.00
24858;BME280;12935;50.782;6.074;2023-01-27T06:48:25;100256.00;;;2.14;100.00
24858;BME280;12935;50.782;6.074;2023-01-27T06:50:52;100258.03;;;2.08;100.00
24858;BME280;12935;50.782;6.074;2023-01-27T06:53:18;100252.34;;;2.10;100.00
24858;BME280;12935;50.782;6.074;2023-01-27T06:55:43;100248.53;;;2.20;100.00
24858;BME280;12935;50.782;6.074;2023-01-27T06:58:11;100255.66;;;2.33;100.00
24858;BME280;12935;50.782;6.074;2023-01-27T07:00:38;100247.53;;;2.41;100.00
24858;BME280;12935;50.782;6.074;2023-01-27T07:03:08;100258.44;;;2.54;100.00
24858;BME280;12935;50.782;6.074;2023-01-27T07:05:35;100256.06;;;2.52;100.00
24858;BME280;12935;50.782;6.074;2023-01-27T07:08:01;100263.69;;;2.59;100.00
24858;BME280;12935;50.782;6.074;2023-01-27T07:10:27;100273.16;;;2.73;100.00
24858;BME280;12935;50.782;6.074;2023-01-27T07:13:02;100268.81;;;2.90;100.00
24858;BME280;12935;50.782;6.074;2023-01-27T07:15:28;100265.59;;;3.05;100.00
24858;BME280;12935;50.782;6.074;2023-01-27T07:17:57;100276.78;;;2.86;100.00
24858;BME280;12935;50.782;6.074;2023-01-27T07:20:22;100279.50;;;2.69;100.00
24858;BME280;12935;50.782;6.074;2023-01-27T07:22:52;100274.81;;;2.49;100.00
24858;BME280;12935;50.782;6.074;2023-01-27T07:25:17;100282.09;;;2.65;100.00
24858;BME280;12935;50.782;6.074;2023-01-27T07:27:43;100285.25;;;2.59;100.00
24858;BME280;12935;50.782;6.074;2023-01-27T07:30:09;100280.22;;;2.49;100.00
24858;BME280;12935;50.782;6.074;2023-01-27T07:32:39;100277.53;;;2.49;100.00
24858;BME280;12935;50.782;6.074;2023-01-27T07:35:04;100283.22;;;2.38;100.00
24858;BME280;12935;50.782;6.074;2023-01-27T07:37:30;100290.53;;;2.38;100.00
24858;BME280;12935;50.782;6.074;2023-01-27T07:39:55;100284.19;;;2.42;100.00
24858;BME280;12935;50.782;6.074;2023-01-27T07:42:21;100293.53;;;2.45;100.00
24858;BME280;12935;50.782;6.074;2023-01-27T07:44:46;100290.00;;;2.70;100.00
24858;BME280;12935;50.782;6.074;2023-01-27T07:47:12;100290.06;;;2.44;100.00
24858;BME280;12935;50.782;6.074;2023-01-27T07:49:40;100281.63;;;2.63;100.00
24858;BME280;12935;50.782;6.074;2023-01-27T07:52:05;100292.66;;;2.88;100.00
24858;BME280;12935;50.782;6.074;2023-01-27T07:54:31;100284.53;;;2.88;100.00
24858;BME280;12935;50.782;6.074;2023-01-27T07:56:59;100286.66;;;2.73;100.00
24858;BME280;12935;50.782;6.074;2023-01-27T07:59:28;100286.69;;;2.65;100.00
24858;BME280;12935;50.782;6.074;2023-01-27T08:01:53;100293.16;;;2.72;100.00
24858;BME280;12935;50.782;6.074;2023-01-27T08:04:19;100287.25;;;2.88;100.00
24858;BME280;12935;50.782;6.074;2023-01-27T08:06:45;100288.06;;;2.79;100.00
24858;BME280;12935;50.782;6.074;2023-01-27T08:09:10;100288.13;;;2.54;100.00
24858;BME280;12935;50.782;6.074;2023-01-27T08:11:36;100291.09;;;2.78;100.00
24858;BME280;12935;50.782;6.074;2023-01-27T08:14:04;100294.31;;;2.63;100.00
24858;BME280;12935;50.782;6.074;2023-01-27T08:16:30;100295.75;;;2.60;100.00
24858;BME280;12935;50.782;6.074;2023-01-27T08:18:55;100291.56;;;2.71;100.00
24858;BME280;12935;50.782;6.074;2023-01-27T08:21:21;100292.53;;;2.75;100.00
24858;BME280;12935;50.782;6.074;2023-01-27T08:23:47;100294.75;;;2.82;100.00
24858;BME280;12935;50.782;6.074;2023-01-27T08:26:12;100297.00;;;2.63;100.00
24858;BME280;12935;50.782;6.074;2023-01-27T08:28:39;100288.75;;;2.59;100.00
24858;BME280;12935;50.782;6.074;2023-01-27T08:31:10;100298.78;;;2.50;100.00
24858;BME280;12935;50.782;6.074;2023-01-27T08:33:37;100297.59;;;2.77;100.00
24858;BME280;12935;50.782;6.074;2023-01-27T08:36:08;100301.56;;;2.71;100.00
24858;BME280;12935;50.782;6.074;2023-01-27T08:38:35;100298.09;;;2.70;100.00
24858;BME280;12935;50.782;6.074;2023-01-27T08:41:14;100309.06;;;2.65;100.00
24858;BME280;12935;50.782;6.074;2023-01-27T08:43:41;100304.16;;;2.59;100.00
24858;BME280;12935;50.782;6.074;2023-01-27T08:46:07;100307.63;;;2.59;100.00
24858;BME280;12935;50.782;6.074;2023-01-27T08:48:36;100299.22;;;2.61;100.00
24858;BME280;12935;50.782;6.074;2023-01-27T08:51:03;100309.06;;;2.57;100.00
24858;BME280;12935;50.782;6.074;2023-01-27T08:53:30;100300.38;;;2.42;100.00
24858;BME280;12935;50.782;6.074;2023-01-27T08:55:57;100307.81;;;2.45;100.00
24858;BME280;12935;50.782;6.074;2023-01-27T08:58:23;100302.22;;;2.76;100.00
24858;BME280;12935;50.782;6.074;2023-01-27T09:00:49;100297.94;;;2.75;100.00
24858;BME280;12935;50.782;6.074;2023-01-27T09:03:15;100303.44;;;2.88;100.00
24858;BME280;12935;50.782;6.074;2023-01-27T09:05:41;100305.13;;;3.01;100.00
24858;BME280;12935;50.782;6.074;2023-01-27T09:08:07;100309.09;;;3.12;100.00
24858;BME280;12935;50.782;6.074;2023-01-27T09:10:37;100306.72;;;3.02;100.00
24858;BME280;12935;50.782;6.074;2023-01-27T09:13:03;100309.19;;;2.77;100.00
24858;BME280;12935;50.782;6.074;2023-01-27T09:15:29;100312.31;;;2.97;100.00
24858;BME280;12935;50.782;6.074;2023-01-27T09:18:03;100315.13;;;3.09;100.00
24858;BME280;12935;50.782;6.074;2023-01-27T09:20:32;100310.78;;;3.16;100.00
24858;BME280;12935;50.782;6.074;2023-01-27T09:22:58;100314.66;;;3.07;100.00
24858;BME280;12935;50.782;6.074;2023-01-27T09:25:24;100330.53;;;3.00;100.00
24858;BME280;12935;50.782;6.074;2023-01-27T09:27:56;100316.13;;;2.87;100.00
24858;BME280;12935;50.782;6.074;2023-01-27T09:30:23;100324.34;;;3.08;100.00
24858;BME280;12935;50.782;6.074;2023-01-27T09:32:49;100324.13;;;3.22;100.00
24858;BME280;12935;50.782;6.074;2023-01-27T09:35:15;100327.56;;;2.93;100.00
24858;BME280;12935;50.782;6.074;2023-01-27T09:40:17;100319.94;;;2.95;100.00
24858;BME280;12935;50.782;6.074;2023-01-27T09:45:23;100325.34;;;2.86;100.00
24858;BME280;12935;50.782;6.074;2023-01-27T09:58:39;100339.91;;;3.02;100.00
24858;BME280;12935;50.782;6.074;2023-01-27T10:01:38;100348.84;;;2.94;100.00
24858;BME280;12935;50.782;6.074;2023-01-27T10:04:21;100340.91;;;2.98;100.00
24858;BME280;12935;50.782;6.074;2023-01-27T10:12:51;100347.59;;;2.83;100.00
24858;BME280;12935;50.782;6.074;2023-01-27T10:18:31;100340.91;;;3.36;100.00
24858;BME280;12935;50.782;6.074;2023-01-27T10:21:34;100340.59;;;3.67;100.00
24858;BME280;12935;50.782;6.074;2023-01-27T10:27:13;100342.88;;;3.56;100.00
24858;BME280;12935;50.782;6.074;2023-01-27T10:29:44;100336.63;;;3.64;100.00
24858;BME280;12935;50.782;6.074;2023-01-27T10:35:20;100349.66;;;3.62;100.00
24858;BME280;12935;50.782;6.074;2023-01-27T10:38:14;100348.94;;;3.82;100.00
24858;BME280;12935;50.782;6.074;2023-01-27T10:40:58;100353.59;;;4.03;100.00
24858;BME280;12935;50.782;6.074;2023-01-27T10:46:34;100354.03;;;4.26;100.00
24858;BME280;12935;50.782;6.074;2023-01-27T10:49:25;100348.09;;;3.91;100.00
24858;BME280;12935;50.782;6.074;2023-01-27T10:51:59;100354.41;;;3.95;100.00
24858;BME280;12935;50.782;6.074;2023-01-27T10:54:41;100339.34;;;4.14;100.00
24858;BME280;12935;50.782;6.074;2023-01-27T11:02:32;100352.84;;;4.14;100.00
24858;BME280;12935;50.782;6.074;2023-01-27T11:05:04;100347.31;;;4.32;100.00
24858;BME280;12935;50.782;6.074;2023-01-27T11:07:32;100359.84;;;4.36;100.00
24858;BME280;12935;50.782;6.074;2023-01-27T11:10:14;100347.03;;;4.45;100.00
24858;BME280;12935;50.782;6.074;2023-01-27T11:12:46;100347.97;;;4.49;100.00
24858;BME280;12935;50.782;6.074;2023-01-27T11:15:33;100342.09;;;4.47;100.00
24858;BME280;12935;50.782;6.074;2023-01-27T11:18:18;100345.72;;;4.51;100.00
24858;BME280;12935;50.782;6.074;2023-01-27T11:21:01;100342.03;;;4.35;100.00
24858;BME280;12935;50.782;6.074;2023-01-27T11:23:38;100339.38;;;4.27;100.00
24858;BME280;12935;50.782;6.074;2023-01-27T11:26:39;100331.16;;;4.02;100.00
24858;BME280;12935;50.782;6.074;2023-01-27T11:29:37;100324.19;;;4.22;100.00
24858;BME280;12935;50.782;6.074;2023-01-27T11:35:18;100326.94;;;3.93;100.00
24858;BME280;12935;50.782;6.074;2023-01-27T11:37:47;100319.81;;;4.09;100.00
24858;BME280;12935;50.782;6.074;2023-01-27T11:42:41;100325.47;;;4.37;100.00
24858;BME280;12935;50.782;6.074;2023-01-27T11:45:13;100318.94;;;4.17;100.00
24858;BME280;12935;50.782;6.074;2023-01-27T11:47:40;100316.09;;;4.34;100.00
24858;BME280;12935;50.782;6.074;2023-01-27T11:50:13;100322.69;;;4.45;100.00
24858;BME280;12935;50.782;6.074;2023-01-27T11:52:46;100321.94;;;4.24;100.00
24858;BME280;12935;50.782;6.074;2023-01-27T11:57:52;100315.69;;;3.82;100.00
24858;BME280;12935;50.782;6.074;2023-01-27T12:00:23;100317.09;;;3.88;100.00
24858;BME280;12935;50.782;6.074;2023-01-27T12:03:08;100318.69;;;4.10;100.00
24858;BME280;12935;50.782;6.074;2023-01-27T12:05:42;100321.78;;;4.00;100.00
24858;BME280;12935;50.782;6.074;2023-01-27T12:08:09;100309.19;;;3.83;100.00
24858;BME280;12935;50.782;6.074;2023-01-27T12:10:37;100313.81;;;4.03;100.00
24858;BME280;12935;50.782;6.074;2023-01-27T12:13:18;100310.66;;;4.22;100.00
24858;BME280;12935;50.782;6.074;2023-01-27T12:15:53;100309.72;;;4.39;100.00
24858;BME280;12935;50.782;6.074;2023-01-27T12:18:23;100310.50;;;3.98;100.00
24858;BME280;12935;50.782;6.074;2023-01-27T12:21:04;100307.53;;;3.91;100.00
24858;BME280;12935;50.782;6.074;2023-01-27T12:23:39;100313.50;;;4.05;100.00
24858;BME280;12935;50.782;6.074;2023-01-27T12:26:11;100308.41;;;4.24;100.00
24858;BME280;12935;50.782;6.074;2023-01-27T12:28:42;100308.50;;;4.48;100.00
24858;BME280;12935;50.782;6.074;2023-01-27T12:31:27;100300.09;;;4.62;100.00
24858;BME280;12935;50.782;6.074;2023-01-27T12:34:15;100309.31;;;4.61;100.00
24858;BME280;12935;50.782;6.074;2023-01-27T12:36:45;100309.81;;;4.75;100.00
24858;BME280;12935;50.782;6.074;2023-01-27T12:39:44;100297.00;;;4.84;100.00
24858;BME280;12935;50.782;6.074;2023-01-27T12:42:42;100302.16;;;4.77;100.00
24858;BME280;12935;50.782;6.074;2023-01-27T12:45:25;100290.75;;;4.72;100.00
24858;BME280;12935;50.782;6.074;2023-01-27T12:50:34;100282.38;;;4.32;100.00
24858;BME280;12935;50.782;6.074;2023-01-27T13:00:54;100283.47;;;4.51;100.00
24858;BME280;12935;50.782;6.074;2023-01-27T13:03:22;100290.03;;;4.63;100.00
24858;BME280;12935;50.782;6.074;2023-01-27T13:05:52;100285.22;;;4.68;100.00
24858;BME280;12935;50.782;6.074;2023-01-27T13:08:19;100270.78;;;4.64;100.00
24858;BME280;12935;50.782;6.074;2023-01-27T13:10:59;100279.94;;;4.39;100.00
24858;BME280;12935;50.782;6.074;2023-01-27T13:13:28;100277.97;;;4.60;100.00
24858;BME280;12935;50.782;6.074;2023-01-27T13:18:53;100278.44;;;4.29;100.00
24858;BME280;12935;50.782;6.074;2023-01-27T13:21:21;100294.00;;;4.65;100.00
24858;BME280;12935;50.782;6.074;2023-01-27T13:23:49;100295.25;;;4.35;100.00
24858;BME280;12935;50.782;6.074;2023-01-27T13:26:20;100287.31;;;4.50;100.00
24858;BME280;12935;50.782;6.074;2023-01-27T13:42:48;100303.00;;;5.02;100.00
24858;BME280;12935;50.782;6.074;2023-01-27T13:47:56;100301.44;;;5.13;100.00
24858;BME280;12935;50.782;6.074;2023-01-27T13:50:39;100301.97;;;5.07;100.00
24858;BME280;12935;50.782;6.074;2023-01-27T13:53:12;100304.59;;;5.03;100.00
24858;BME280;12935;50.782;6.074;2023-01-27T13:56:11;100303.22;;;5.09;100.00
24858;BME280;12935;50.782;6.074;2023-01-27T14:23:07;100315.31;;;4.34;100.00
24858;BME280;12935;50.782;6.074;2023-01-27T14:25:49;100323.44;;;4.13;100.00
24858;BME280;12935;50.782;6.074;2023-01-27T14:31:34;100323.97;;;4.06;100.00
24858;BME280;12935;50.782;6.074;2023-01-27T14:48:48;100328.75;;;3.80;100.00
24858;BME280;12935;50.782;6.074;2023-01-27T14:51:28;100330.75;;;3.92;100.00
24858;BME280;12935;50.782;6.074;2023-01-27T14:56:52;100335.63;;;3.98;100.00
24858;BME280;12935;50.782;6.074;2023-01-27T15:21:31;100360.59;;;4.25;100.00
24858;BME280;12935;50.782;6.074;2023-01-27T15:26:55;100370.13;;;4.43;100.00
24858;BME280;12935;50.782;6.074;2023-01-27T15:29:26;100372.13;;;4.54;100.00
24858;BME280;12935;50.782;6.074;2023-01-27T15:34:44;100370.31;;;3.96;100.00
24858;BME280;12935;50.782;6.074;2023-01-27T15:37:25;100386.44;;;3.84;100.00
24858;BME280;12935;50.782;6.074;2023-01-27T15:40:24;100386.50;;;4.05;100.00
24858;BME280;12935;50.782;6.074;2023-01-27T15:42:51;100388.00;;;4.14;100.00
24858;BME280;12935;50.782;6.074;2023-01-27T15:48:05;100398.13;;;4.47;100.00